Goudge, Argentina
Current Conditions -  °F | °C
As of 9:00 PM on Sunday 23 Nov 2014 (Local Time) from SAME Reporting Station
Scattered Clouds Scattered Clouds  
Wind Chill: 30°   Ceiling: Unl
Heat Index: 30°   Visibility: 6mi
Dew Point: 11°   Wind: 2mph
Humidity: 31%   Direction: 180°S
Pressure: 29.56"   Gusts: NA
Location:  34.67°S, 68.13°W
Report Text: SAME 240000Z 18002KT 9999 FEW045 SCT05030/11 Q1001
Loading
Personal Weather Stations






























Interactive Weather Map New forecast layout! Learn more

10-Day Weather Forecast

Advertisements
Track Severe Weather on mobile